Time;durP1;ratioP1;P1;durP2;ratioP2;P2;SDS_P1;SDS_P2;PMS_P1;PMS_P2;Temp;Humidity;BMP_temperature;BMP_pressure;BME280_temperature;BME280_humidity;BME280_pressure;Samples;Min_cycle;Max_cycle;Signal;HPM_P1;HPM_P2
2023/09/14 00:01:49;;;;;;;5.30;4.90;;;20.10;99.90;;;;;;5032753;28;20277;-84
2023/09/14 00:04:14;;;;;;;5.73;4.83;;;19.60;99.90;;;;;;5036221;28;20204;-84
2023/09/14 00:06:41;;;;;;;6.63;5.47;;;19.90;99.90;;;;;;5031951;28;20293;-84
2023/09/14 00:09:07;;;;;;;6.13;5.60;;;19.50;99.90;;;;;;5036124;28;20246;-84
2023/09/14 00:11:33;;;;;;;5.87;5.37;;;19.90;99.90;;;;;;5033101;28;20198;-84
2023/09/14 00:13:58;;;;;;;6.60;5.50;;;19.70;99.90;;;;;;5037401;28;20446;-84
2023/09/14 00:16:24;;;;;;;5.33;4.93;;;19.80;99.90;;;;;;5031116;28;20666;-84
2023/09/14 00:18:49;;;;;;;6.37;5.83;;;19.70;99.90;;;;;;5031098;28;20197;-84
2023/09/14 00:21:15;;;;;;;6.23;5.63;;;19.90;99.90;;;;;;5032422;28;20680;-84
2023/09/14 00:23:40;;;;;;;6.90;5.73;;;19.70;99.90;;;;;;5032394;28;20202;-84
2023/09/14 00:26:06;;;;;;;6.80;5.57;;;19.60;99.90;;;;;;5030465;28;20217;-84
2023/09/14 00:28:31;;;;;;;6.77;5.73;;;20.00;99.90;;;;;;5031361;28;20232;-84
2023/09/14 00:30:57;;;;;;;6.80;6.20;;;19.50;99.90;;;;;;5034646;28;20197;-84
2023/09/14 00:33:23;;;;;;;7.53;6.37;;;19.40;99.90;;;;;;5028909;28;20518;-84
2023/09/14 00:35:48;;;;;;;8.30;6.30;;;19.50;99.90;;;;;;5030879;28;20619;-84
2023/09/14 00:38:15;;;;;;;6.50;5.90;;;19.50;99.90;;;;;;5032179;28;20189;-84
2023/09/14 00:40:40;;;;;;;6.55;5.97;;;19.30;99.90;;;;;;5033282;28;21016;-84
2023/09/14 00:43:06;;;;;;;7.60;6.30;;;18.90;99.90;;;;;;5032140;28;20341;-84
2023/09/14 00:45:32;;;;;;;5.80;5.30;;;19.20;99.90;;;;;;5032857;28;20429;-84
2023/09/14 00:47:59;;;;;;;6.70;6.10;;;18.90;99.90;;;;;;5026800;28;20373;-84
2023/09/14 00:50:26;;;;;;;6.25;5.65;;;19.10;99.90;;;;;;5028466;28;20186;-84
2023/09/14 00:53:00;;;;;;;7.32;6.60;;;19.20;99.90;;;;;;5045940;28;20209;-84
2023/09/14 00:55:27;;;;;;;7.80;7.00;;;18.80;99.90;;;;;;5025817;28;20265;-84
2023/09/14 00:57:54;;;;;;;6.97;6.38;;;18.80;99.90;;;;;;5027544;28;20280;-84
2023/09/14 01:00:20;;;;;;;7.40;6.50;;;19.00;99.90;;;;;;4995765;28;20341;-84
2023/09/14 01:02:47;;;;;;;7.27;6.67;;;19.20;99.90;;;;;;5027457;28;20293;-84
2023/09/14 01:05:15;;;;;;;7.35;6.75;;;18.90;99.90;;;;;;5042054;28;20441;-84
2023/09/14 01:07:42;;;;;;;7.10;6.40;;;19.00;99.90;;;;;;5024292;28;20179;-84
2023/09/14 01:10:12;;;;;;;7.10;6.38;;;18.80;99.90;;;;;;5026132;28;20189;-84
2023/09/14 01:12:39;;;;;;;6.68;6.07;;;18.90;99.90;;;;;;5041478;28;20206;-84
2023/09/14 01:15:22;;;;;;;8.10;7.50;;;19.80;99.90;;;;;;5027388;28;20240;-84
2023/09/14 01:17:57;;;;;;;8.43;7.63;;;18.40;99.90;;;;;;5028119;28;20204;-84
2023/09/14 01:20:35;;;;;;;8.15;7.45;;;18.30;99.90;;;;;;5030730;28;20592;-84
2023/09/14 01:23:41;;;;;;;7.78;6.97;;;18.50;99.90;;;;;;5028913;28;20678;-84
2023/09/14 01:26:08;;;;;;;8.38;7.68;;;18.10;99.90;;;;;;5025031;28;20182;-84
2023/09/14 01:28:34;;;;;;;7.47;6.60;;;18.20;99.90;;;;;;5030012;28;20205;-84
2023/09/14 01:30:59;;;;;;;8.57;7.77;;;18.70;99.90;;;;;;5039979;28;20175;-85
2023/09/14 01:33:27;;;;;;;8.33;7.60;;;18.60;99.90;;;;;;5041577;28;20212;-84
2023/09/14 01:36:12;;;;;;;8.25;7.45;;;18.30;99.90;;;;;;5035964;28;20187;-84
2023/09/14 01:38:38;;;;;;;8.20;7.40;;;17.70;99.90;;;;;;5032879;28;20201;-84
2023/09/14 01:41:04;;;;;;;7.68;7.00;;;18.40;99.90;;;;;;5030166;28;20349;-84
2023/09/14 01:43:31;;;;;;;8.45;7.65;;;18.60;99.90;;;;;;5028922;28;20218;-84
2023/09/14 01:45:57;;;;;;;8.57;7.88;;;18.40;99.90;;;;;;5032336;28;20175;-84
2023/09/14 01:48:23;;;;;;;8.43;7.73;;;18.20;99.90;;;;;;5033479;28;20190;-84
2023/09/14 01:50:49;;;;;;;7.90;7.20;;;18.50;99.90;;;;;;5032023;28;20267;-84
2023/09/14 01:53:14;;;;;;;7.17;6.57;;;18.50;99.90;;;;;;5031229;28;20483;-84
2023/09/14 01:55:40;;;;;;;8.23;7.53;;;18.60;99.90;;;;;;5034093;28;20445;-84
2023/09/14 01:58:05;;;;;;;8.47;7.67;;;18.40;99.90;;;;;;5043046;28;20436;-84
2023/09/14 02:00:32;;;;;;;8.03;7.23;;;18.80;99.90;;;;;;5041742;28;20174;-84
2023/09/14 02:02:58;;;;;;;8.88;8.07;;;18.60;99.90;;;;;;5051049;28;20233;-84
2023/09/14 02:05:23;;;;;;;7.63;6.90;;;18.40;99.90;;;;;;5044016;28;20761;-83
2023/09/14 02:07:49;;;;;;;10.10;7.50;;;18.30;99.90;;;;;;5024756;28;20328;-84
2023/09/14 02:10:15;;;;;;;8.07;7.37;;;18.60;99.90;;;;;;5031621;28;20239;-83
2023/09/14 02:12:41;;;;;;;7.97;6.97;;;19.00;99.90;;;;;;5030799;28;20234;-83
2023/09/14 02:15:08;;;;;;;8.87;8.10;;;18.80;99.90;;;;;;5027572;28;20200;-83
2023/09/14 02:17:34;;;;;;;8.23;7.43;;;18.40;99.90;;;;;;5026804;28;20209;-85
2023/09/14 02:20:00;;;;;;;8.43;7.73;;;18.70;99.90;;;;;;5011227;28;20246;-85
2023/09/14 02:22:25;;;;;;;8.10;7.40;;;18.00;99.90;;;;;;5028765;28;20217;-83
2023/09/14 02:24:51;;;;;;;8.43;7.63;;;18.80;99.90;;;;;;5029432;28;20837;-83
2023/09/14 02:27:17;;;;;;;7.10;6.50;;;18.30;99.90;;;;;;5031430;28;20183;-84
2023/09/14 02:29:42;;;;;;;7.77;6.80;;;18.80;99.90;;;;;;5030360;28;20193;-83
2023/09/14 02:32:08;;;;;;;8.30;7.50;;;18.90;99.90;;;;;;5051953;28;20190;-83
2023/09/14 02:34:34;;;;;;;6.50;5.90;;;18.60;99.90;;;;;;5061993;28;20213;-83
2023/09/14 02:37:00;;;;;;;5.90;5.40;;;18.50;99.90;;;;;;5048853;28;20191;-83
2023/09/14 02:39:25;;;;;;;5.93;5.43;;;18.80;99.90;;;;;;5045419;28;20194;-83
2023/09/14 02:41:51;;;;;;;6.60;6.10;;;;;;;;;;5048423;28;20214;-83
2023/09/14 02:44:16;;;;;;;6.17;5.67;;;18.50;99.90;;;;;;5049238;28;20217;-83
2023/09/14 02:46:42;;;;;;;6.63;6.13;;;18.80;99.90;;;;;;5050825;28;21125;-84
2023/09/14 02:49:08;;;;;;;6.37;5.77;;;18.50;99.90;;;;;;5050826;28;20197;-83
2023/09/14 02:51:33;;;;;;;6.00;5.37;;;18.80;99.90;;;;;;5044199;28;20543;-85
2023/09/14 02:53:59;;;;;;;7.70;5.87;;;19.50;99.90;;;;;;5027508;28;20524;-83
2023/09/14 02:56:24;;;;;;;5.90;5.40;;;18.90;99.90;;;;;;5032348;28;20190;-83
2023/09/14 02:58:53;;;;;;;7.97;5.37;;;18.60;99.90;;;;;;5032253;28;20244;-84
2023/09/14 03:01:20;;;;;;;6.00;5.50;;;18.80;99.90;;;;;;5035457;28;20320;-84
2023/09/14 03:03:47;;;;;;;6.10;5.50;;;18.50;99.90;;;;;;5032660;28;20686;-84
2023/09/14 03:06:12;;;;;;;6.03;5.53;;;18.80;99.90;;;;;;5030060;28;20182;-84
2023/09/14 03:08:38;;;;;;;6.87;5.17;;;18.40;99.90;;;;;;5030745;28;20183;-84
2023/09/14 03:11:04;;;;;;;8.13;5.40;;;19.40;99.90;;;;;;5034298;28;20379;-84
2023/09/14 03:13:31;;;;;;;7.00;6.30;;;18.60;99.90;;;;;;5030214;28;20198;-84
2023/09/14 03:15:59;;;;;;;5.50;5.10;;;18.70;99.90;;;;;;5031719;28;20193;-84
2023/09/14 03:18:25;;;;;;;6.00;5.20;;;18.60;99.90;;;;;;5034068;28;20277;-84
2023/09/14 03:20:53;;;;;;;5.25;4.68;;;18.80;99.90;;;;;;5035346;28;20209;-84
2023/09/14 03:23:19;;;;;;;5.95;5.45;;;19.00;99.90;;;;;;5032829;28;20297;-84
2023/09/14 03:25:45;;;;;;;6.53;5.95;;;18.50;99.90;;;;;;5037047;28;20189;-84
2023/09/14 03:28:11;;;;;;;5.25;4.85;;;18.40;99.90;;;;;;5033652;28;20190;-84
2023/09/14 03:30:37;;;;;;;5.60;5.10;;;18.60;99.90;;;;;;5033963;28;20208;-84
2023/09/14 03:33:03;;;;;;;5.45;4.93;;;18.30;99.90;;;;;;5034302;28;20460;-84
2023/09/14 03:35:29;;;;;;;4.53;4.20;;;18.30;99.90;;;;;;5035950;28;20193;-84
2023/09/14 03:37:56;;;;;;;4.80;4.40;;;18.80;99.90;;;;;;5031138;28;20182;-85
2023/09/14 03:40:22;;;;;;;5.10;4.68;;;18.50;99.90;;;;;;5034672;28;20178;-85
2023/09/14 03:42:49;;;;;;;5.20;4.80;;;19.40;99.90;;;;;;5032732;28;20625;-84
2023/09/14 03:45:14;;;;;;;5.50;5.10;;;18.70;99.90;;;;;;5032879;28;20205;-84
2023/09/14 03:47:40;;;;;;;5.50;4.80;;;18.40;99.90;;;;;;5029271;28;20220;-85
2023/09/14 03:50:06;;;;;;;6.57;6.00;;;18.60;99.90;;;;;;5035737;28;20265;-84
2023/09/14 03:52:32;;;;;;;5.70;5.20;;;18.30;99.90;;;;;;5035273;28;20198;-85
2023/09/14 03:54:57;;;;;;;5.93;5.43;;;18.60;99.90;;;;;;5035262;28;20256;-84
2023/09/14 03:57:24;;;;;;;6.53;6.03;;;19.00;99.90;;;;;;5033023;28;20545;-84
2023/09/14 03:59:51;;;;;;;5.68;5.18;;;18.80;99.90;;;;;;5034276;28;20189;-84
2023/09/14 04:02:17;;;;;;;6.10;5.20;;;19.90;99.90;;;;;;5032239;28;20562;-84
2023/09/14 04:04:43;;;;;;;5.40;4.90;;;18.70;99.90;;;;;;5031771;28;20170;-86
2023/09/14 04:07:09;;;;;;;6.00;5.50;;;19.40;99.90;;;;;;5031659;28;20384;-83
2023/09/14 04:09:34;;;;;;;5.40;4.90;;;18.70;99.90;;;;;;5034326;28;20675;-85
2023/09/14 04:12:00;;;;;;;5.60;5.10;;;18.70;99.90;;;;;;5033791;28;20587;-83
2023/09/14 04:14:26;;;;;;;5.87;5.37;;;18.80;99.90;;;;;;5031253;28;20193;-83
2023/09/14 04:16:53;;;;;;;6.00;5.50;;;18.70;99.90;;;;;;5030858;28;20213;-83
2023/09/14 04:19:18;;;;;;;6.07;5.57;;;18.80;99.90;;;;;;5032811;28;20206;-83
2023/09/14 04:21:46;;;;;;;5.30;4.80;;;18.70;99.90;;;;;;5034896;28;20379;-82
2023/09/14 04:24:11;;;;;;;6.15;5.70;;;18.70;99.90;;;;;;5035792;28;20236;-82
2023/09/14 04:26:38;;;;;;;6.27;5.77;;;18.50;99.90;;;;;;5038711;28;20178;-82
2023/09/14 04:29:03;;;;;;;6.63;6.03;;;18.40;99.90;;;;;;5037031;28;20189;-83
2023/09/14 04:31:29;;;;;;;6.10;5.60;;;18.00;99.90;;;;;;5031995;28;20174;-83
2023/09/14 04:33:54;;;;;;;5.60;5.10;;;18.40;99.90;;;;;;5031587;28;20190;-83
2023/09/14 04:36:20;;;;;;;6.93;6.33;;;18.10;99.90;;;;;;5032896;28;20194;-83
2023/09/14 04:38:45;;;;;;;6.07;5.57;;;17.80;99.90;;;;;;5032275;28;20190;-83
2023/09/14 04:41:11;;;;;;;5.80;5.30;;;18.00;99.90;;;;;;5025941;28;20206;-83
2023/09/14 04:43:37;;;;;;;6.73;6.07;;;18.20;99.90;;;;;;5030104;28;20202;-83
2023/09/14 04:46:07;;;;;;;6.87;6.20;;;18.30;99.90;;;;;;5031109;28;20182;-83
2023/09/14 04:48:32;;;;;;;6.25;5.75;;;17.70;99.90;;;;;;5030298;28;20214;-83
2023/09/14 04:50:59;;;;;;;5.60;5.10;;;18.00;99.90;;;;;;5031267;28;20198;-83
2023/09/14 04:53:27;;;;;;;5.38;4.88;;;19.20;99.90;;;;;;5033855;28;20210;-83
2023/09/14 04:55:53;;;;;;;5.88;5.28;;;17.80;99.90;;;;;;5031282;28;20181;-83
2023/09/14 04:58:19;;;;;;;5.50;5.00;;;17.90;99.90;;;;;;5028639;28;20187;-83
2023/09/14 05:00:51;;;;;;;5.60;5.20;;;18.30;99.90;;;;;;5032877;28;20602;-83
2023/09/14 05:03:17;;;;;;;7.05;6.35;;;17.50;99.90;;;;;;5033184;28;20214;-83
2023/09/14 05:05:48;;;;;;;6.40;5.90;;;17.20;99.90;;;;;;5019975;28;20246;-83
2023/09/14 05:08:14;;;;;;;6.43;5.82;;;17.40;99.90;;;;;;5030496;28;20197;-82
2023/09/14 05:10:39;;;;;;;6.40;5.80;;;18.20;99.90;;;;;;5035077;28;20186;-83
2023/09/14 05:13:05;;;;;;;6.23;5.73;;;18.20;99.90;;;;;;5028089;28;20214;-85
2023/09/14 05:15:30;;;;;;;6.23;5.53;;;17.50;99.90;;;;;;5026323;28;20579;-83
2023/09/14 05:17:57;;;;;;;7.73;6.97;;;17.50;99.90;;;;;;5031831;28;20274;-83
2023/09/14 05:20:23;;;;;;;8.20;7.00;;;17.10;99.90;;;;;;5029535;28;20190;-83
2023/09/14 05:22:48;;;;;;;6.80;6.20;;;17.20;99.90;;;;;;5032204;28;20210;-83
2023/09/14 05:25:14;;;;;;;10.93;6.63;;;17.10;99.90;;;;;;5033968;28;20205;-83
2023/09/14 05:27:41;;;;;;;7.00;6.30;;;16.90;99.90;;;;;;5031263;28;20183;-83
2023/09/14 05:30:11;;;;;;;6.82;6.03;;;17.30;99.90;;;;;;5037902;28;20440;-82
2023/09/14 05:32:38;;;;;;;6.22;5.65;;;17.20;99.90;;;;;;5034466;28;20202;-83
2023/09/14 05:35:09;;;;;;;9.05;5.80;;;17.10;99.90;;;;;;5017971;28;20198;-82
2023/09/14 05:37:35;;;;;;;6.57;5.95;;;17.10;99.90;;;;;;5040190;28;20205;-83
2023/09/14 05:40:00;;;;;;;7.03;6.43;;;17.40;99.90;;;;;;5045106;28;20202;-82
2023/09/14 05:42:29;;;;;;;7.10;6.40;;;17.90;99.90;;;;;;5047085;28;20191;-83
2023/09/14 05:44:55;;;;;;;6.45;5.93;;;17.00;99.90;;;;;;5039302;28;20284;-82
2023/09/14 05:47:20;;;;;;;7.00;6.40;;;17.20;99.90;;;;;;5034572;28;20400;-81
2023/09/14 05:49:47;;;;;;;6.40;5.47;;;17.60;99.90;;;;;;5017305;28;20258;-84
2023/09/14 05:52:12;;;;;;;6.45;5.95;;;17.60;99.90;;;;;;5040376;28;20206;-84
2023/09/14 05:54:39;;;;;;;7.10;5.70;;;18.00;99.90;;;;;;5027390;28;20189;-84
2023/09/14 05:57:05;;;;;;;6.88;6.18;;;17.70;99.90;;;;;;5025757;28;20186;-84
2023/09/14 05:59:30;;;;;;;6.93;6.33;;;17.60;99.90;;;;;;5029077;28;20195;-84
2023/09/14 06:01:56;;;;;;;8.33;6.57;;;17.70;99.90;;;;;;5028684;28;20198;-85
2023/09/14 06:04:21;;;;;;;7.33;6.73;;;17.80;99.90;;;;;;5030100;28;20217;-84
2023/09/14 06:06:47;;;;;;;7.23;6.73;;;18.30;99.90;;;;;;5031157;28;20181;-84
2023/09/14 06:09:13;;;;;;;6.90;6.30;;;19.10;99.90;;;;;;5028733;28;20289;-84
2023/09/14 06:11:41;;;;;;;7.93;7.13;;;19.60;99.90;;;;;;5031580;28;20289;-85
2023/09/14 06:14:07;;;;;;;10.23;8.70;;;18.60;99.90;;;;;;5027550;28;20670;-85
2023/09/14 06:16:32;;;;;;;8.93;8.03;;;18.70;99.90;;;;;;5030621;28;20233;-85
2023/09/14 06:18:59;;;;;;;8.90;8.00;;;19.30;99.90;;;;;;5028893;28;20198;-85
2023/09/14 06:21:25;;;;;;;9.80;8.90;;;18.90;99.90;;;;;;5034579;28;20508;-85
2023/09/14 06:23:50;;;;;;;9.03;8.23;;;19.50;99.90;;;;;;5037373;28;20205;-85
2023/09/14 06:26:16;;;;;;;12.30;8.13;;;19.50;99.90;;;;;;5030919;28;20194;-85
2023/09/14 06:28:41;;;;;;;9.10;8.20;;;20.40;99.90;;;;;;5024952;28;20190;-85
2023/09/14 06:31:07;;;;;;;9.20;8.30;;;19.60;99.90;;;;;;5026735;28;20198;-86
2023/09/14 06:33:32;;;;;;;9.43;8.53;;;19.80;99.90;;;;;;5029323;28;20564;-85
2023/09/14 06:35:58;;;;;;;13.33;12.13;;;19.90;99.90;;;;;;5028290;28;20186;-86
2023/09/14 06:38:23;;;;;;;10.00;9.10;;;19.00;99.90;;;;;;5029229;28;20185;-86
2023/09/14 06:40:49;;;;;;;10.70;9.23;;;19.20;99.90;;;;;;5031165;28;20190;-86
2023/09/14 06:43:14;;;;;;;10.80;9.70;;;19.00;99.90;;;;;;5031469;28;20621;-85
2023/09/14 06:45:40;;;;;;;10.10;9.07;;;19.20;99.90;;;;;;5030194;28;20170;-85
2023/09/14 06:48:05;;;;;;;9.73;8.73;;;19.20;99.90;;;;;;5035316;28;20205;-85
2023/09/14 06:50:31;;;;;;;11.27;9.33;;;19.10;99.90;;;;;;5030118;28;20187;-86
2023/09/14 06:52:56;;;;;;;12.27;8.73;;;19.60;99.90;;;;;;5029115;28;20209;-85
2023/09/14 06:55:22;;;;;;;9.23;7.67;;;19.40;99.90;;;;;;5031017;28;20200;-85
2023/09/14 06:57:48;;;;;;;8.70;7.90;;;19.80;99.90;;;;;;5030283;28;20219;-85
2023/09/14 07:00:15;;;;;;;8.20;7.40;;;19.40;99.90;;;;;;5044568;28;20174;-85
2023/09/14 07:02:41;;;;;;;7.60;6.70;;;19.40;99.90;;;;;;5049727;28;20206;-86
2023/09/14 07:05:10;;;;;;;7.80;7.05;;;19.60;99.90;;;;;;5049838;28;20178;-85
2023/09/14 07:07:36;;;;;;;8.13;7.35;;;19.60;99.90;;;;;;5043898;28;20166;-85
2023/09/14 07:10:03;;;;;;;7.10;6.40;;;19.50;99.90;;;;;;5051553;28;20193;-87
2023/09/14 07:12:29;;;;;;;6.55;5.95;;;19.40;99.90;;;;;;5049774;28;20190;-85
2023/09/14 07:14:55;;;;;;;7.10;6.40;;;19.70;99.90;;;;;;5048611;28;20201;-85
2023/09/14 07:17:20;;;;;;;8.23;7.43;;;19.80;99.90;;;;;;5052608;28;20192;-86
2023/09/14 07:19:56;;;;;;;8.33;6.97;;;19.40;99.90;;;;;;5043761;28;20275;-86
2023/09/14 07:22:22;;;;;;;7.88;7.15;;;19.10;99.90;;;;;;5097842;22;20222;-85
2023/09/14 07:24:54;;;;;;;9.23;7.93;;;19.10;99.90;;;;;;5032778;28;20193;-86
2023/09/14 07:27:21;;;;;;;9.05;8.27;;;19.10;99.90;;;;;;4997300;28;20199;-85
2023/09/14 07:29:47;;;;;;;8.68;7.80;;;19.40;99.90;;;;;;5013405;28;20217;-85
2023/09/14 07:32:12;;;;;;;8.03;7.23;;;18.90;99.90;;;;;;5006343;28;20211;-86
2023/09/14 07:34:38;;;;;;;9.57;8.33;;;19.10;99.90;;;;;;4992684;28;20636;-86
2023/09/14 07:37:04;;;;;;;10.10;9.10;;;19.50;99.90;;;;;;5005900;28;20199;-86
2023/09/14 07:39:29;;;;;;;8.60;7.30;;;19.30;99.90;;;;;;5013574;28;20453;-86
2023/09/14 07:41:55;;;;;;;8.83;7.97;;;19.90;99.90;;;;;;5013818;28;20215;-85
2023/09/14 07:44:21;;;;;;;10.27;8.93;;;19.40;99.90;;;;;;4981471;28;20579;-85
2023/09/14 07:46:47;;;;;;;15.37;9.70;;;20.10;99.90;;;;;;4993683;28;20191;-86
2023/09/14 07:49:12;;;;;;;12.23;10.30;;;19.00;99.90;;;;;;4994993;28;20190;-84
2023/09/14 07:51:38;;;;;;;10.63;9.63;;;19.40;99.90;;;;;;4992968;28;20200;-85
2023/09/14 07:54:04;;;;;;;10.47;9.40;;;19.90;99.90;;;;;;4994627;28;20195;-86
2023/09/14 07:56:29;;;;;;;12.93;10.60;;;19.40;99.90;;;;;;4993804;28;20530;-85
2023/09/14 07:58:56;;;;;;;10.27;9.37;;;19.10;99.90;;;;;;4991594;28;20184;-85
2023/09/14 08:01:22;;;;;;;9.38;8.27;;;19.70;99.90;;;;;;4996246;28;20258;-87
2023/09/14 08:03:48;;;;;;;9.52;8.40;;;20.20;99.90;;;;;;4996724;28;20207;-87
2023/09/14 08:06:15;;;;;;;16.60;9.33;;;20.60;99.90;;;;;;4999190;28;20188;-86
2023/09/14 08:08:40;;;;;;;10.93;8.45;;;19.90;99.90;;;;;;5009093;28;20587;-83
2023/09/14 08:11:06;;;;;;;8.73;7.93;;;20.90;99.90;;;;;;5012486;28;20236;-83
2023/09/14 08:13:32;;;;;;;8.57;7.77;;;19.90;99.90;;;;;;5011561;28;20561;-84
2023/09/14 08:16:03;;;;;;;9.70;8.80;;;19.60;99.90;;;;;;5002920;28;20187;-83
2023/09/14 08:18:30;;;;;;;8.73;7.93;;;19.80;99.90;;;;;;5000298;28;21066;-84
2023/09/14 08:20:56;;;;;;;10.48;9.50;;;19.90;99.90;;;;;;4989273;28;20395;-82
2023/09/14 08:23:21;;;;;;;9.63;8.40;;;20.10;99.90;;;;;;5001483;28;20268;-82
2023/09/14 08:25:47;;;;;;;10.83;9.73;;;19.60;99.90;;;;;;5003137;28;20274;-83
2023/09/14 08:28:14;;;;;;;8.63;7.82;;;19.90;99.90;;;;;;5000914;28;20222;-83
2023/09/14 08:30:41;;;;;;;8.90;8.00;;;19.80;99.90;;;;;;4999735;28;20187;-84
2023/09/14 08:33:07;;;;;;;10.02;8.95;;;20.00;99.90;;;;;;4997271;28;20213;-84
2023/09/14 08:35:34;;;;;;;9.90;8.95;;;20.00;99.90;;;;;;5000057;28;20195;-83
2023/09/14 08:38:00;;;;;;;8.57;7.72;;;19.50;99.90;;;;;;5006515;28;20190;-83
2023/09/14 08:40:26;;;;;;;8.45;7.65;;;19.80;99.90;;;;;;5016773;28;20548;-83
2023/09/14 08:42:54;;;;;;;9.10;8.20;;;20.20;99.90;;;;;;5013571;28;20207;-83
2023/09/14 08:45:25;;;;;;;9.60;8.70;;;20.30;99.90;;;;;;5012514;28;20198;-83
2023/09/14 08:47:52;;;;;;;8.57;7.20;;;20.50;99.90;;;;;;5014913;28;20175;-83
2023/09/14 08:50:18;;;;;;;8.55;7.68;;;20.10;99.90;;;;;;5014924;28;20171;-83
2023/09/14 08:52:47;;;;;;;10.27;9.27;;;20.00;99.90;;;;;;5017045;28;20507;-84
2023/09/14 08:55:15;;;;;;;9.70;8.80;;;20.50;99.90;;;;;;5013889;28;20252;-84
2023/09/14 08:57:44;;;;;;;8.45;7.65;;;20.50;99.90;;;;;;5019036;28;20168;-83
2023/09/14 09:00:16;;;;;;;8.15;7.32;;;20.50;99.90;;;;;;5011302;28;20202;-83
2023/09/14 09:02:48;;;;;;;9.43;7.38;;;20.10;99.90;;;;;;5010505;28;20217;-83
2023/09/14 09:05:15;;;;;;;8.38;7.10;;;20.60;99.90;;;;;;5000056;28;20315;-83
2023/09/14 09:07:42;;;;;;;8.52;7.72;;;20.20;99.90;;;;;;4996150;28;20187;-83
2023/09/14 09:10:21;;;;;;;8.60;7.70;;;20.40;99.90;;;;;;5004865;28;20188;-84
2023/09/14 09:12:51;;;;;;;9.75;7.90;;;20.20;99.90;;;;;;5010400;28;20558;-82
2023/09/14 09:15:17;;;;;;;8.45;7.65;;;20.40;99.90;;;;;;5000294;28;20290;-82
2023/09/14 09:17:44;;;;;;;8.37;7.30;;;20.60;99.90;;;;;;4996628;28;20676;-83
2023/09/14 09:20:22;;;;;;;8.15;7.43;;;20.30;99.90;;;;;;4978644;28;20184;-84
2023/09/14 09:22:52;;;;;;;9.15;7.45;;;20.50;99.90;;;;;;4995699;28;20219;-83
2023/09/14 09:25:19;;;;;;;8.38;7.57;;;20.80;99.90;;;;;;5013941;28;20195;-84
2023/09/14 09:27:45;;;;;;;8.07;7.25;;;20.80;99.90;;;;;;5002096;28;20691;-85
2023/09/14 09:30:13;;;;;;;8.30;7.50;;;20.60;99.90;;;;;;5002975;28;20183;-83
2023/09/14 09:32:42;;;;;;;8.30;7.40;;;20.40;99.90;;;;;;5019567;28;20210;-83
2023/09/14 09:35:23;;;;;;;8.05;7.25;;;20.70;99.90;;;;;;5000332;28;20219;-84
2023/09/14 09:37:50;;;;;;;7.13;6.53;;;20.50;99.90;;;;;;4998270;28;20211;-83
2023/09/14 09:40:21;;;;;;;7.57;6.88;;;21.00;99.90;;;;;;4995847;28;20288;-83
2023/09/14 09:42:48;;;;;;;7.45;6.85;;;21.30;99.90;;;;;;4999899;28;20210;-83
2023/09/14 09:45:16;;;;;;;8.65;7.05;;;21.50;99.90;;;;;;4998481;28;20183;-84
2023/09/14 09:47:42;;;;;;;6.60;6.00;;;21.10;99.90;;;;;;4986906;28;20384;-83
2023/09/14 09:50:13;;;;;;;6.50;5.90;;;21.40;99.90;;;;;;5001924;28;20190;-82
2023/09/14 09:52:41;;;;;;;7.00;6.40;;;21.30;99.90;;;;;;5003540;28;20210;-83
2023/09/14 09:55:14;;;;;;;6.90;6.15;;;21.20;99.90;;;;;;5000008;28;20193;-82
2023/09/14 09:57:49;;;;;;;7.80;7.03;;;21.30;99.90;;;;;;4999887;28;20663;-82
2023/09/14 10:00:15;;;;;;;8.05;5.85;;;21.60;99.90;;;;;;5004210;28;20198;-82
2023/09/14 10:02:41;;;;;;;7.15;6.45;;;21.60;99.90;;;;;;5004082;28;20213;-84
2023/09/14 10:05:08;;;;;;;7.17;6.23;;;23.20;99.90;;;;;;5002507;28;20411;-83
2023/09/14 10:07:41;;;;;;;7.68;6.00;;;22.00;99.90;;;;;;4996926;28;20187;-83
2023/09/14 10:10:24;;;;;;;6.30;5.70;;;22.00;99.90;;;;;;5001100;28;20188;-83
2023/09/14 10:12:52;;;;;;;6.53;6.03;;;22.40;99.90;;;;;;5010324;28;20500;-83
2023/09/14 10:15:19;;;;;;;8.40;7.27;;;22.40;99.90;;;;;;4984413;28;20446;-83
2023/09/14 10:17:47;;;;;;;5.63;5.13;;;22.00;99.90;;;;;;5002777;28;20450;-83
2023/09/14 10:20:14;;;;;;;6.20;5.60;;;22.70;99.90;;;;;;5001394;28;20438;-83
2023/09/14 10:22:41;;;;;;;5.87;5.27;;;22.90;99.80;;;;;;5001017;28;20485;-83
2023/09/14 10:25:08;;;;;;;5.80;5.30;;;23.00;99.10;;;;;;4999464;28;20450;-84
2023/09/14 10:27:34;;;;;;;5.43;4.93;;;22.20;99.10;;;;;;4999439;28;20446;-83
2023/09/14 10:30:03;;;;;;;6.10;5.60;;;22.40;99.20;;;;;;5000489;28;20297;-82
2023/09/14 10:32:29;;;;;;;5.88;5.38;;;22.70;99.00;;;;;;5001178;28;20199;-82
2023/09/14 10:34:59;;;;;;;6.23;5.60;;;22.40;98.60;;;;;;5003370;28;20282;-82
2023/09/14 10:37:26;;;;;;;5.90;5.30;;;22.30;98.80;;;;;;4984661;28;20192;-83
2023/09/14 10:39:53;;;;;;;5.50;5.10;;;22.80;98.70;;;;;;5000755;28;20852;-84
2023/09/14 10:42:21;;;;;;;5.70;5.27;;;22.90;98.80;;;;;;4999815;28;20477;-83
2023/09/14 10:44:48;;;;;;;6.33;4.97;;;22.80;98.20;;;;;;5000567;28;20473;-83
2023/09/14 10:47:19;;;;;;;5.60;5.17;;;22.80;98.00;;;;;;5015859;28;20465;-84
2023/09/14 10:49:46;;;;;;;6.50;5.90;;;22.80;98.20;;;;;;4999873;28;20451;-84
2023/09/14 10:52:12;;;;;;;7.20;6.30;;;22.90;98.00;;;;;;4982526;28;20990;-83
2023/09/14 10:54:38;;;;;;;5.33;4.93;;;23.60;98.60;;;;;;5002073;28;20647;-83
2023/09/14 10:57:25;;;;;;;6.43;5.40;;;22.80;98.10;;;;;;4996861;28;20466;-83
2023/09/14 10:59:58;;;;;;;9.33;8.43;;;23.10;97.60;;;;;;4997158;28;20445;-84
2023/09/14 11:02:39;;;;;;;5.80;5.40;;;23.10;97.40;;;;;;4999717;28;20466;-85
2023/09/14 11:05:11;;;;;;;6.40;5.70;;;23.50;97.60;;;;;;4999775;28;20494;-83
2023/09/14 11:07:39;;;;;;;5.43;4.90;;;22.80;97.60;;;;;;4997609;28;20470;-83
2023/09/14 11:10:09;;;;;;;6.00;5.40;;;22.50;97.60;;;;;;4983144;28;20457;-83
2023/09/14 11:12:35;;;;;;;5.90;5.30;;;22.40;98.00;;;;;;5001236;28;20475;-83
2023/09/14 11:15:23;;;;;;;5.50;5.00;;;22.90;98.20;;;;;;4999705;28;20568;-84
2023/09/14 11:17:53;;;;;;;4.83;4.40;;;22.60;97.60;;;;;;4997777;28;20183;-83
2023/09/14 11:20:24;;;;;;;5.70;5.20;;;22.40;97.50;;;;;;4996536;28;20522;-83
2023/09/14 11:22:57;;;;;;;5.50;5.10;;;22.50;97.70;;;;;;5000274;28;20469;-82
2023/09/14 11:25:37;;;;;;;9.50;5.20;;;22.60;97.80;;;;;;4985909;28;20446;-83
2023/09/14 11:28:07;;;;;;;6.03;5.50;;;22.40;97.50;;;;;;5001928;28;20446;-83
2023/09/14 11:30:33;;;;;;;5.20;4.80;;;22.70;97.20;;;;;;4998242;28;20434;-83
2023/09/14 11:33:04;;;;;;;4.90;4.50;;;23.40;97.20;;;;;;4999519;28;20534;-83
2023/09/14 11:35:38;;;;;;;4.87;4.43;;;23.10;96.80;;;;;;4998012;28;20535;-83
2023/09/14 11:38:16;;;;;;;5.07;4.70;;;24.10;96.80;;;;;;4994537;28;20453;-83
2023/09/14 11:40:43;;;;;;;5.67;5.07;;;23.10;96.40;;;;;;5004403;28;21066;-83
2023/09/14 11:43:22;;;;;;;5.10;4.60;;;23.10;96.50;;;;;;4987257;28;20527;-83
2023/09/14 11:45:58;;;;;;;7.83;6.10;;;23.10;97.20;;;;;;4994127;28;20485;-83
2023/09/14 11:48:29;;;;;;;4.53;4.13;;;22.70;96.70;;;;;;5002691;28;20434;-83
2023/09/14 11:50:56;;;;;;;5.77;5.27;;;23.00;96.20;;;;;;5001167;28;20434;-83
2023/09/14 11:53:22;;;;;;;5.30;4.73;;;23.30;96.50;;;;;;5001440;28;20459;-83
2023/09/14 11:55:49;;;;;;;4.87;4.47;;;22.80;96.90;;;;;;5005230;28;20530;-83
2023/09/14 11:58:15;;;;;;;14.37;6.57;;;23.00;96.70;;;;;;5001844;28;20519;-83
2023/09/14 12:00:45;;;;;;;4.40;4.00;;;23.50;95.90;;;;;;5002413;28;20441;-84
2023/09/14 12:03:11;;;;;;;4.93;4.53;;;23.80;95.50;;;;;;5000974;28;20473;-84
2023/09/14 12:05:38;;;;;;;5.57;4.50;;;24.00;95.30;;;;;;4998992;28;20434;-83
2023/09/14 12:08:10;;;;;;;5.43;4.83;;;23.70;95.60;;;;;;5003335;28;20418;-83
2023/09/14 12:10:36;;;;;;;5.53;5.00;;;23.10;95.80;;;;;;5001630;28;20501;-83
2023/09/14 12:13:27;;;;;;;5.10;4.60;;;23.40;96.30;;;;;;5001267;28;20564;-83
2023/09/14 12:16:02;;;;;;;6.73;4.80;;;23.10;96.40;;;;;;5011682;28;20203;-84
2023/09/14 12:18:41;;;;;;;7.33;5.93;;;23.00;95.90;;;;;;5010854;28;20450;-83
2023/09/14 12:21:10;;;;;;;4.07;3.73;;;22.80;95.80;;;;;;4999648;28;20459;-83
2023/09/14 12:23:39;;;;;;;5.67;5.00;;;22.80;95.70;;;;;;5000026;28;20478;-83
2023/09/14 12:26:09;;;;;;;5.23;4.10;;;22.80;95.20;;;;;;5000971;28;20439;-83
2023/09/14 12:28:35;;;;;;;6.03;4.13;;;22.70;95.20;;;;;;5006282;28;21049;-83
2023/09/14 12:31:02;;;;;;;5.93;3.97;;;22.90;95.50;;;;;;5009694;28;20427;-83
2023/09/14 12:33:28;;;;;;;4.03;3.60;;;23.40;96.20;;;;;;5005709;28;20498;-85
2023/09/14 12:35:56;;;;;;;5.00;4.10;;;23.30;95.40;;;;;;5009611;28;20450;-82
2023/09/14 12:38:22;;;;;;;5.17;4.67;;;23.00;95.60;;;;;;5010979;28;20450;-83
2023/09/14 12:40:49;;;;;;;5.17;4.77;;;22.70;96.00;;;;;;5011594;28;20446;-82
2023/09/14 12:43:16;;;;;;;4.73;4.23;;;23.10;95.90;;;;;;5007154;28;20222;-83
2023/09/14 12:45:42;;;;;;;4.63;3.70;;;23.10;96.20;;;;;;5007602;28;20439;-82
2023/09/14 12:48:08;;;;;;;4.83;4.30;;;23.20;95.50;;;;;;4990922;28;20461;-83